الصفحة الرئيسية
METAR-TAF:

METAR-TAF

مطار :

مطار تشنغدو شوانغليو الدولي

تشنغدو, جمهورية الصين الشعبية

دائرة عرض: 30-40N, خط طول: 104-01E, ارتفاع: 508 متر

مراقبة الطقس الحالي

تاريخ ووقت الإصدار 22 دقيقة قبل الساعة 00:00UTC
رياح هادئة
درجة الحرارة 13°درجة مئوية
الرطوبة 100%
ضغط 1022 hPa
الرؤية: 7000 متر
غيوم قليلة على ارتفاع 1000 قدم
غيوم متفرقة على ارتفاع 4000 قدم

METAR: ZUUU 210000Z 00000MPS 7000 FEW010 SCT040 13/13 Q1022 NOSIG

زمن: 08:22 (00:22 UTC)

توقعات

تاريخ ووقت الإصدار 4ساعات و 21 دقيقة قبل الساعة 20:01UTC
التوقعات صالحة من21 الساعة 00 UTC إلى 21 الساعة 24 UTC
ريح 6 عقدة من الشمال/الشمال الشرقي
الرؤية: 5000 متر
غيوم متفرقة على ارتفاع 4000 قدم
غشاء

TAF: ZUUU 202001Z 2100/2124 02003MPS 5000 BR SCT040 TX19/2107Z TN13/2122Z

أرصاد الطقس والتوقعات من أكثر من 4000 مطار (تقارير الطقس للمطار METAR والتنبؤ بالطقس بالمطارTAF).

المحطات المتاحة هي النقط الصفراء والحمراء على الخريطة.

حرك المؤشر فوق النقطة لمعرفة اسم المحطة.

ثم انقر لمعرفة أرصاد وتوقعات الطقس.

لتغيير الخارطة: اضغط على الأزرار الخضراء مع رمز الصليب الأسود للتكبير. على الزر الأخضر مع شرطة للتصغير، أو على الأسهم الخضراء للخرائط المجاورة.


METAR-TAF: